Time;durP1;ratioP1;P1;durP2;ratioP2;P2;SDS_P1;SDS_P2;PMS_P1;PMS_P2;Temp;Humidity;BMP_temperature;BMP_pressure;BME280_temperature;BME280_humidity;BME280_pressure;Samples;Min_cycle;Max_cycle;Signal;HPM_P1;HPM_P2
2023/06/13 00:01:49;;;;;;;8.65;3.17;;;;;;;;;;6173693;23;20111;-58
2023/06/13 00:04:23;;;;;;;5.13;3.53;;;;;;;;;;6176541;23;20017;-45
2023/06/13 00:07:01;;;;;;;4.43;2.88;;;;;;;;;;6176918;23;20830;-42
2023/06/13 00:09:30;;;;;;;5.97;3.47;;;;;;;;;;6174497;23;20075;-43
2023/06/13 00:12:05;;;;;;;7.82;3.80;;;;;;;;;;6176611;23;20470;-44
2023/06/13 00:14:32;;;;;;;3.97;3.40;;;;;;;;;;6177876;23;20633;-57
2023/06/13 00:17:01;;;;;;;7.25;3.75;;;;;;;;;;6176633;23;20031;-47
2023/06/13 00:19:36;;;;;;;4.30;3.50;;;;;;;;;;6178625;23;20087;-44
2023/06/13 00:22:03;;;;;;;4.57;3.30;;;;;;;;;;6177031;23;20355;-49
2023/06/13 00:24:37;;;;;;;6.15;3.10;;;;;;;;;;6178954;23;20040;-50
2023/06/13 00:27:06;;;;;;;7.93;3.38;;;;;;;;;;6178128;23;20028;-44
2023/06/13 00:29:33;;;;;;;10.52;3.78;;;;;;;;;;6178592;23;20075;-46
2023/06/13 00:32:08;;;;;;;5.32;3.08;;;;;;;;;;6178867;23;20367;-57
2023/06/13 00:34:41;;;;;;;5.80;3.10;;;;;;;;;;6178454;23;20083;-55
2023/06/13 00:37:16;;;;;;;6.00;3.20;;;;;;;;;;6177054;23;20083;-56
2023/06/13 00:39:44;;;;;;;5.50;2.88;;;;;;;;;;6176271;23;20510;-58
2023/06/13 00:42:18;;;;;;;3.88;3.13;;;;;;;;;;6178862;23;20021;-57
2023/06/13 00:44:45;;;;;;;4.63;2.95;;;;;;;;;;6178238;23;20021;-43
2023/06/13 00:47:13;;;;;;;7.20;3.47;;;;;;;;;;6177380;23;20021;-42
2023/06/13 00:49:48;;;;;;;8.98;3.10;;;;;;;;;;6175874;23;20483;-42
2023/06/13 00:52:16;;;;;;;5.50;3.08;;;;;;;;;;6178067;23;20017;-41
2023/06/13 00:54:43;;;;;;;;;;;;;;;;;;6179572;23;20041;-42
2023/06/13 00:57:16;;;;;;;4.22;3.08;;;;;;;;;;6152355;23;19916;-42
2023/06/13 00:59:44;;;;;;;4.05;3.40;;;;;;;;;;6178610;23;20083;-53
2023/06/13 01:02:20;;;;;;;4.90;3.33;;;;;;;;;;6176805;23;20025;-55
2023/06/13 01:04:49;;;;;;;6.30;3.10;;;;;;;;;;6178290;23;20479;-53
2023/06/13 01:07:17;;;;;;;8.77;3.22;;;;;;;;;;6177527;23;20411;-56
2023/06/13 01:09:50;;;;;;;6.82;3.70;;;;;;;;;;6176975;23;20427;-45
2023/06/13 01:12:25;;;;;;;5.57;3.38;;;;;;;;;;6175400;23;20434;-58
2023/06/13 01:15:11;;;;;;;6.65;3.35;;;;;;;;;;6177432;23;20107;-48
2023/06/13 01:17:57;;;;;;;6.80;3.70;;;;;;;;;;6175810;23;20040;-47
2023/06/13 01:20:37;;;;;;;8.15;3.75;;;;;;;;;;6176131;23;20048;-47
2023/06/13 01:23:23;;;;;;;5.30;3.20;;;;;;;;;;6177958;23;20037;-50
2023/06/13 01:25:59;;;;;;;7.03;3.90;;;;;;;;;;6177892;23;20083;-46
2023/06/13 01:28:26;;;;;;;6.97;3.63;;;;;;;;;;6178240;23;20024;-43
2023/06/13 01:31:01;;;;;;;10.50;3.70;;;;;;;;;;6178051;23;20017;-47
2023/06/13 01:33:30;;;;;;;4.45;3.10;;;;;;;;;;6177220;23;20052;-47
2023/06/13 01:36:04;;;;;;;5.78;3.33;;;;;;;;;;6176207;23;20087;-45
2023/06/13 01:38:31;;;;;;;6.22;3.45;;;;;;;;;;6177810;23;20025;-54
2023/06/13 01:41:05;;;;;;;6.63;3.30;;;;;;;;;;6178069;23;20025;-41
2023/06/13 01:43:32;;;;;;;5.22;3.65;;;;;;;;;;6178361;23;20021;-42
2023/06/13 01:46:13;;;;;;;4.20;3.00;;;;;;;;;;6177658;23;20017;-43
2023/06/13 01:48:54;;;;;;;6.00;3.50;;;;;;;;;;6177440;23;20025;-42
2023/06/13 01:51:27;;;;;;;14.20;3.50;;;;;;;;;;6176414;23;20025;-44
2023/06/13 01:54:03;;;;;;;6.47;3.60;;;;;;;;;;6149701;23;20430;-44
2023/06/13 01:56:32;;;;;;;7.82;4.10;;;;;;;;;;6174064;23;20029;-50
2023/06/13 01:59:11;;;;;;;4.95;3.15;;;;;;;;;;6174201;23;20025;-46
2023/06/13 02:01:39;;;;;;;6.35;3.65;;;;;;;;;;6178102;23;20459;-42
2023/06/13 02:04:13;;;;;;;5.40;3.60;;;;;;;;;;6177393;23;20398;-46
2023/06/13 02:06:40;;;;;;;7.45;3.70;;;;;;;;;;6172995;23;20084;-45
2023/06/13 02:09:07;;;;;;;8.00;3.60;;;;;;;;;;6174562;23;20030;-43
2023/06/13 02:11:41;;;;;;;10.68;3.92;;;;;;;;;;6176500;23;20083;-44
2023/06/13 02:14:08;;;;;;;6.45;3.92;;;;;;;;;;6177633;23;20104;-42
2023/06/13 02:16:49;;;;;;;7.50;3.65;;;;;;;;;;6176997;23;20618;-47
2023/06/13 02:19:23;;;;;;;7.82;4.30;;;;;;;;;;6175235;23;20434;-47
2023/06/13 02:21:56;;;;;;;7.97;3.50;;;;;;;;;;6176544;23;20025;-46
2023/06/13 02:24:30;;;;;;;5.45;3.80;;;;;;;;;;6175139;23;20594;-45
2023/06/13 02:27:06;;;;;;;5.40;4.00;;;;;;;;;;6176864;23;20059;-47
2023/06/13 02:29:35;;;;;;;6.80;3.80;;;;;;;;;;6176352;23;20021;-57
2023/06/13 02:32:02;;;;;;;6.45;3.63;;;;;;;;;;6176869;23;20079;-54
2023/06/13 02:34:36;;;;;;;6.97;3.72;;;;;;;;;;6175861;23;20498;-53
2023/06/13 02:37:04;;;;;;;5.38;4.13;;;;;;;;;;6175586;23;20029;-55
2023/06/13 02:39:38;;;;;;;6.00;3.85;;;;;;;;;;6176736;23;20028;-58
2023/06/13 02:42:05;;;;;;;6.82;3.53;;;;;;;;;;6177056;23;20021;-57
2023/06/13 02:44:32;;;;;;;7.93;3.80;;;;;;;;;;6178078;23;20033;-46
2023/06/13 02:47:07;;;;;;;6.22;4.32;;;;;;;;;;6177567;23;20025;-46
2023/06/13 02:49:34;;;;;;;7.70;3.70;;;;;;;;;;6175200;23;20029;-48
2023/06/13 02:52:08;;;;;;;4.80;3.40;;;;;;;;;;6176239;23;20036;-45
2023/06/13 02:54:35;;;;;;;4.85;3.80;;;;;;;;;;6178027;23;20021;-44
2023/06/13 02:57:02;;;;;;;6.80;4.10;;;;;;;;;;6176136;23;20025;-58
2023/06/13 02:59:37;;;;;;;6.90;3.72;;;;;;;;;;6176105;23;20032;-57
2023/06/13 03:02:04;;;;;;;5.00;3.33;;;;;;;;;;6177018;23;20471;-55
2023/06/13 03:04:38;;;;;;;4.07;3.45;;;;;;;;;;6176177;23;20028;-56
2023/06/13 03:07:05;;;;;;;8.07;3.90;;;;;;;;;;6175214;23;20091;-53
2023/06/13 03:09:39;;;;;;;4.38;3.40;;;;;;;;;;6175789;23;20025;-56
2023/06/13 03:12:07;;;;;;;6.57;3.70;;;;;;;;;;6177240;23;20028;-42
2023/06/13 03:14:41;;;;;;;3.67;2.97;;;;;;;;;;6176154;23;20459;-42
2023/06/13 03:17:08;;;;;;;;;;;;;;;;;;6172837;23;20024;-41
2023/06/13 03:19:50;;;;;;;4.38;3.53;;;;;;;;;;6173976;23;19923;-44
2023/06/13 03:22:26;;;;;;;7.82;3.47;;;;;;;;;;6177093;23;20035;-47
2023/06/13 03:25:04;;;;;;;7.03;4.43;;;;;;;;;;6174993;23;20021;-45
2023/06/13 03:27:32;;;;;;;11.05;3.88;;;;;;;;;;6177140;23;20052;-45
2023/06/13 03:29:59;;;;;;;6.75;3.33;;;;;;;;;;6176487;23;20029;-45
2023/06/13 03:32:34;;;;;;;8.30;3.58;;;;;;;;;;6177357;23;20080;-45
2023/06/13 03:35:07;;;;;;;7.43;4.10;;;;;;;;;;6176506;23;20029;-50
2023/06/13 03:37:35;;;;;;;5.90;3.33;;;;;;;;;;6177356;23;20029;-44
2023/06/13 03:40:02;;;;;;;7.22;3.50;;;;;;;;;;6150530;23;20562;-45
2023/06/13 03:42:35;;;;;;;5.28;4.20;;;;;;;;;;6176435;23;20064;-48
2023/06/13 03:45:03;;;;;;;4.70;3.83;;;;;;;;;;6176873;23;20545;-47
2023/06/13 03:47:37;;;;;;;6.05;4.07;;;;;;;;;;6174226;23;20036;-45
2023/06/13 03:50:05;;;;;;;5.55;3.60;;;;;;;;;;6178360;23;20100;-57
2023/06/13 03:52:32;;;;;;;11.93;4.15;;;;;;;;;;6179043;23;20020;-52
2023/06/13 03:55:06;;;;;;;5.40;3.83;;;;;;;;;;6178173;23;20118;-43
2023/06/13 03:57:36;;;;;;;7.30;3.25;;;;;;;;;;6179626;23;20063;-46
2023/06/13 04:00:10;;;;;;;4.43;3.13;;;;;;;;;;6178179;23;20089;-49
2023/06/13 04:02:39;;;;;;;7.22;3.60;;;;;;;;;;6176705;23;20057;-45
2023/06/13 04:05:08;;;;;;;11.10;3.72;;;;;;;;;;6177401;23;20024;-44
2023/06/13 04:07:42;;;;;;;11.95;3.45;;;;;;;;;;6176847;23;20021;-46
2023/06/13 04:10:10;;;;;;;6.22;3.13;;;;;;;;;;6175987;23;20020;-56
2023/06/13 04:12:44;;;;;;;5.80;3.40;;;;;;;;;;6174049;23;20061;-55
2023/06/13 04:15:11;;;;;;;7.65;3.42;;;;;;;;;;6178871;23;20712;-56
2023/06/13 04:17:38;;;;;;;6.63;3.05;;;;;;;;;;6179799;23;20052;-56
2023/06/13 04:20:21;;;;;;;5.10;3.03;;;;;;;;;;6178740;23;20021;-41
2023/06/13 04:22:48;;;;;;;7.43;3.20;;;;;;;;;;6178289;23;20025;-46
2023/06/13 04:25:23;;;;;;;8.13;3.20;;;;;;;;;;6177168;23;20021;-47
2023/06/13 04:27:50;;;;;;;7.55;3.10;;;;;;;;;;6176295;23;20029;-49
2023/06/13 04:30:17;;;;;;;5.28;2.80;;;;;;;;;;6177515;23;20021;-45
2023/06/13 04:32:51;;;;;;;8.70;3.10;;;;;;;;;;6177377;23;20079;-50
2023/06/13 04:35:22;;;;;;;4.32;2.88;;;;;;;;;;6174577;23;20100;-50
2023/06/13 04:37:52;;;;;;;4.85;3.30;;;;;;;;;;6177293;23;20136;-47
2023/06/13 04:40:31;;;;;;;10.68;3.45;;;;;;;;;;6175141;23;20537;-48
2023/06/13 04:43:03;;;;;;;11.23;3.67;;;;;;;;;;6176054;23;20471;-48
2023/06/13 04:45:38;;;;;;;12.82;3.42;;;;;;;;;;6176673;23;20123;-45
2023/06/13 04:48:09;;;;;;;7.47;3.60;;;;;;;;;;6176941;23;20486;-48
2023/06/13 04:50:44;;;;;;;13.57;3.38;;;;;;;;;;6173862;23;20467;-47
2023/06/13 04:53:21;;;;;;;5.55;3.20;;;;;;;;;;6176364;23;20025;-49
2023/06/13 04:55:49;;;;;;;8.25;2.95;;;;;;;;;;6173738;23;20025;-57
2023/06/13 04:58:17;;;;;;;9.25;3.20;;;;;;;;;;6172705;23;20028;-56
2023/06/13 05:00:52;;;;;;;6.70;3.25;;;;;;;;;;6173447;23;20025;-56
2023/06/13 05:03:32;;;;;;;7.82;3.38;;;;;;;;;;6172380;23;20534;-55
2023/06/13 05:06:00;;;;;;;9.57;3.85;;;;;;;;;;6171313;23;20048;-50
2023/06/13 05:08:34;;;;;;;8.50;3.50;;;;;;;;;;6174848;23;20075;-46
2023/06/13 05:11:01;;;;;;;7.53;3.55;;;;;;;;;;6176660;23;20021;-47
2023/06/13 05:13:29;;;;;;;6.32;3.60;;;;;;;;;;6177833;23;20029;-46
2023/06/13 05:16:03;;;;;;;5.65;3.40;;;;;;;;;;6178140;23;20021;-49
2023/06/13 05:18:40;;;;;;;7.18;3.40;;;;;;;;;;6178894;23;20024;-45
2023/06/13 05:21:17;;;;;;;5.35;3.20;;;;;;;;;;6177656;23;20383;-44
2023/06/13 05:23:44;;;;;;;9.60;3.42;;;;;;;;;;6179471;23;20475;-58
2023/06/13 05:26:20;;;;;;;4.03;3.28;;;;;;;;;;6179651;23;20105;-57
2023/06/13 05:28:48;;;;;;;4.97;3.40;;;;;;;;;;6174347;23;20025;-57
2023/06/13 05:31:15;;;;;;;;;;;;;;;;;;6175576;23;20075;-55
2023/06/13 05:33:48;;;;;;;3.97;3.35;;;;;;;;;;6178827;23;20432;-50
2023/06/13 05:36:17;;;;;;;5.72;3.47;;;;;;;;;;6176896;23;20484;-58
2023/06/13 05:38:50;;;;;;;4.65;3.50;;;;;;;;;;6178542;23;20028;-54
2023/06/13 05:41:18;;;;;;;4.63;3.28;;;;;;;;;;6178534;23;20395;-59
2023/06/13 05:43:45;;;;;;;8.13;3.72;;;;;;;;;;6177738;23;20024;-56
2023/06/13 05:46:18;;;;;;;5.40;3.22;;;;;;;;;;6178395;23;20025;-58
2023/06/13 05:48:46;;;;;;;6.32;3.40;;;;;;;;;;6178137;23;20084;-55
2023/06/13 05:51:20;;;;;;;6.68;3.30;;;;;;;;;;6176955;23;20455;-59
2023/06/13 05:53:47;;;;;;;6.40;3.60;;;;;;;;;;6179090;23;20062;-44
2023/06/13 05:56:14;;;;;;;3.63;2.83;;;;;;;;;;6178056;23;20043;-44
2023/06/13 05:58:50;;;;;;;6.80;3.30;;;;;;;;;;6177074;23;20391;-45
2023/06/13 06:01:20;;;;;;;7.65;3.30;;;;;;;;;;6178633;23;20412;-50
2023/06/13 06:03:54;;;;;;;8.90;3.30;;;;;;;;;;6178488;23;20025;-43
2023/06/13 06:06:22;;;;;;;5.95;2.97;;;;;;;;;;6177023;23;20332;-45
2023/06/13 06:08:50;;;;;;;4.15;2.88;;;;;;;;;;6176813;23;20036;-44
2023/06/13 06:11:23;;;;;;;8.32;3.25;;;;;;;;;;6177066;23;20091;-43
2023/06/13 06:13:51;;;;;;;3.92;2.97;;;;;;;;;;6179271;23;20048;-42
2023/06/13 06:16:24;;;;;;;3.88;3.00;;;;;;;;;;6179496;23;20095;-46
2023/06/13 06:18:58;;;;;;;12.50;3.80;;;;;;;;;;6176924;23;20025;-48
2023/06/13 06:21:33;;;;;;;5.85;2.80;;;;;;;;;;6178826;23;20502;-58
2023/06/13 06:24:00;;;;;;;8.07;3.17;;;;;;;;;;6177289;23;20029;-58
2023/06/13 06:26:27;;;;;;;8.00;3.03;;;;;;;;;;6178094;23;20024;-58
2023/06/13 06:29:00;;;;;;;8.13;3.13;;;;;;;;;;6177528;23;20086;-59
2023/06/13 06:31:28;;;;;;;8.20;3.20;;;;;;;;;;6177211;23;20599;-58
2023/06/13 06:34:02;;;;;;;8.15;2.80;;;;;;;;;;6177912;23;20027;-53
2023/06/13 06:36:36;;;;;;;8.38;3.20;;;;;;;;;;6176726;23;20035;-47
2023/06/13 06:39:04;;;;;;;5.95;2.92;;;;;;;;;;6177039;23;20025;-47
2023/06/13 06:41:31;;;;;;;10.57;2.88;;;;;;;;;;6177593;23;20072;-47
2023/06/13 06:44:05;;;;;;;6.10;2.85;;;;;;;;;;6175535;23;20052;-46
2023/06/13 06:46:38;;;;;;;7.50;2.90;;;;;;;;;;6177195;23;20820;-51
2023/06/13 06:49:07;;;;;;;5.25;2.70;;;;;;;;;;6178126;23;20032;-44
2023/06/13 06:51:35;;;;;;;8.27;2.88;;;;;;;;;;6177808;23;20385;-45
2023/06/13 06:54:10;;;;;;;9.43;2.83;;;;;;;;;;6177966;23;20025;-45
2023/06/13 06:56:37;;;;;;;5.15;2.80;;;;;;;;;;6177466;23;20463;-45
2023/06/13 06:59:11;;;;;;;7.45;3.05;;;;;;;;;;6176350;23;20541;-47
2023/06/13 07:01:38;;;;;;;4.57;2.67;;;;;;;;;;6177322;23;20092;-49
2023/06/13 07:04:05;;;;;;;9.43;2.97;;;;;;;;;;6177102;23;20033;-47
2023/06/13 07:06:40;;;;;;;6.10;2.83;;;;;;;;;;6177992;23;20021;-50
2023/06/13 07:09:07;;;;;;;9.32;2.92;;;;;;;;;;6173344;23;20088;-47
2023/06/13 07:11:34;;;;;;;4.80;2.58;;;;;;;;;;6176375;23;20025;-50
2023/06/13 07:14:08;;;;;;;11.88;2.90;;;;;;;;;;6171579;23;20028;-49
2023/06/13 07:16:36;;;;;;;9.15;3.03;;;;;;;;;;6172320;23;20367;-49
2023/06/13 07:19:16;;;;;;;8.00;2.60;;;;;;;;;;6177360;23;20033;-45
2023/06/13 07:21:43;;;;;;;6.35;2.53;;;;;;;;;;6177259;23;20021;-48
2023/06/13 07:24:17;;;;;;;10.27;2.70;;;;;;;;;;6176659;23;20031;-47
2023/06/13 07:26:45;;;;;;;6.00;2.75;;;;;;;;;;6176794;23;20419;-48
2023/06/13 07:29:12;;;;;;;;;;;;;;;;;;6178367;23;20036;-49
2023/06/13 07:31:47;;;;;;;5.47;2.83;;;;;;;;;;6176351;23;19920;-47
2023/06/13 07:34:15;;;;;;;6.90;2.60;;;;;;;;;;6177606;23;20059;-43
2023/06/13 07:36:53;;;;;;;5.47;2.47;;;;;;;;;;6187074;23;20033;-44
2023/06/13 07:39:20;;;;;;;6.05;2.80;;;;;;;;;;6176225;23;20025;-46
2023/06/13 07:41:49;;;;;;;8.52;2.80;;;;;;;;;;6176899;23;20029;-43
2023/06/13 07:44:24;;;;;;;7.43;2.65;;;;;;;;;;6177362;23;20076;-44
2023/06/13 07:46:52;;;;;;;6.07;2.60;;;;;;;;;;6177384;23;20032;-50
2023/06/13 07:49:26;;;;;;;10.52;3.03;;;;;;;;;;6176971;23;20033;-46
2023/06/13 07:51:53;;;;;;;4.70;2.63;;;;;;;;;;6177363;23;20025;-45
2023/06/13 07:54:21;;;;;;;6.30;2.58;;;;;;;;;;6175751;23;20028;-46
2023/06/13 07:56:57;;;;;;;13.35;3.10;;;;;;;;;;6177090;23;20025;-50
2023/06/13 07:59:27;;;;;;;6.68;3.03;;;;;;;;;;6173713;23;20569;-59
2023/06/13 08:02:01;;;;;;;6.03;2.97;;;;;;;;;;6176932;23;20416;-59
2023/06/13 08:04:28;;;;;;;5.72;2.65;;;;;;;;;;6175964;23;20025;-56
2023/06/13 08:07:15;;;;;;;5.97;3.08;;;;;;;;;;6176477;23;20017;-59
2023/06/13 08:09:48;;;;;;;2.92;2.15;;;;;;;;;;6176727;23;20091;-59
2023/06/13 08:12:16;;;;;;;10.75;2.85;;;;;;;;;;6176487;23;20029;-58
2023/06/13 08:14:49;;;;;;;4.80;2.83;;;;;;;;;;6176740;23;20076;-55
2023/06/13 08:17:26;;;;;;;5.13;2.88;;;;;;;;;;6176258;23;20099;-56
2023/06/13 08:20:00;;;;;;;8.48;2.90;;;;;;;;;;6178322;23;20487;-57
2023/06/13 08:22:27;;;;;;;8.23;2.70;;;;;;;;;;6177196;23;20071;-56
2023/06/13 08:24:54;;;;;;;6.28;2.75;;;;;;;;;;6173151;23;20029;-62
2023/06/13 08:27:28;;;;;;;3.97;2.70;;;;;;;;;;6177858;23;20021;-45
2023/06/13 08:29:56;;;;;;;3.78;2.58;;;;;;;;;;6173435;23;20029;-55
2023/06/13 08:32:31;;;;;;;9.50;2.63;;;;;;;;;;6173930;23;20052;-53
2023/06/13 08:34:59;;;;;;;8.02;2.78;;;;;;;;;;6179281;23;20021;-55
2023/06/13 08:37:27;;;;;;;5.38;2.85;;;;;;;;;;6178820;23;20025;-54
2023/06/13 08:40:01;;;;;;;8.85;3.10;;;;;;;;;;6177456;23;20072;-54
2023/06/13 08:42:28;;;;;;;6.97;2.38;;;;;;;;;;6174943;23;20076;-56
2023/06/13 08:45:03;;;;;;;7.10;2.88;;;;;;;;;;6179663;23;20025;-49
2023/06/13 08:47:30;;;;;;;;;;;;;;;;;;6179012;23;20021;-47
2023/06/13 08:50:05;;;;;;;8.13;3.47;;;;;;;;;;6178513;23;19917;-47
2023/06/13 08:52:40;;;;;;;8.18;2.67;;;;;;;;;;6178781;23;20092;-46
2023/06/13 08:55:09;;;;;;;9.98;2.85;;;;;;;;;;6177202;23;20534;-56
2023/06/13 08:57:57;;;;;;;4.65;2.53;;;;;;;;;;6178006;23;20025;-47
2023/06/13 09:00:35;;;;;;;5.25;3.08;;;;;;;;;;6178564;23;20064;-46
2023/06/13 09:03:05;;;;;;;5.90;3.00;;;;;;;;;;6178485;23;20021;-43
2023/06/13 09:05:39;;;;;;;7.05;2.72;;;;;;;;;;6178375;23;20072;-48
2023/06/13 09:08:06;;;;;;;6.82;2.53;;;;;;;;;;6178122;23;20029;-45
2023/06/13 09:10:54;;;;;;;5.35;2.97;;;;;;;;;;6178069;23;20119;-45
2023/06/13 09:13:28;;;;;;;10.70;2.70;;;;;;;;;;6179229;23;20562;-50
2023/06/13 09:15:56;;;;;;;10.60;2.53;;;;;;;;;;6178436;23;20031;-51
2023/06/13 09:18:43;;;;;;;12.85;2.80;;;;;;;;;;6177176;23;20025;-51
2023/06/13 09:21:20;;;;;;;7.30;2.67;;;;;;;;;;6178450;23;20456;-51
2023/06/13 09:23:56;;;;;;;6.15;2.65;;;;;;;;;;6179121;23;20025;-49
2023/06/13 09:26:30;;;;;;;6.88;2.90;;;;;;;;;;6178061;23;20025;-52
2023/06/13 09:28:58;;;;;;;8.85;2.60;;;;;;;;;;6178098;23;20055;-54
2023/06/13 09:31:28;;;;;;;6.57;2.65;;;;;;;;;;6178308;23;20021;-53
2023/06/13 09:34:02;;;;;;;4.05;2.67;;;;;;;;;;6179040;23;20024;-55
2023/06/13 09:36:29;;;;;;;6.35;2.35;;;;;;;;;;6178819;23;20048;-54
2023/06/13 09:39:06;;;;;;;12.40;2.83;;;;;;;;;;6177366;23;20036;-52
2023/06/13 09:41:34;;;;;;;5.57;2.60;;;;;;;;;;6178794;23;20075;-50
2023/06/13 09:44:05;;;;;;;3.10;2.33;;;;;;;;;;6178203;23;20025;-53
2023/06/13 09:46:39;;;;;;;3.90;2.25;;;;;;;;;;6177443;23;20075;-57
2023/06/13 09:49:06;;;;;;;;;;;;;;;;;;6175574;23;20092;-51
2023/06/13 09:51:40;;;;;;;6.38;2.40;;;;;;;;;;6176083;23;19920;-54
2023/06/13 09:54:07;;;;;;;;;;;;;;;;;;6175370;23;20029;-62
2023/06/13 09:56:34;;;;;;;6.00;2.50;;;;;;;;;;6177737;23;19920;-62
2023/06/13 09:59:09;;;;;;;6.38;2.58;;;;;;;;;;6177617;23;20087;-62
2023/06/13 10:01:38;;;;;;;7.15;2.60;;;;;;;;;;6178258;23;20503;-62
2023/06/13 10:04:08;;;;;;;10.27;3.17;;;;;;;;;;6177671;23;20478;-62
2023/06/13 10:06:42;;;;;;;3.92;2.38;;;;;;;;;;6177664;23;20025;-62
2023/06/13 10:09:13;;;;;;;7.38;3.08;;;;;;;;;;6178253;23;20029;-62
2023/06/13 10:11:49;;;;;;;7.18;2.58;;;;;;;;;;6176604;23;20491;-62
2023/06/13 10:14:17;;;;;;;5.35;3.03;;;;;;;;;;6176985;23;20025;-62
2023/06/13 10:16:47;;;;;;;6.35;2.70;;;;;;;;;;6177297;23;20419;-62
2023/06/13 10:19:42;;;;;;;4.22;2.30;;;;;;;;;;6146167;23;20499;-52
2023/06/13 10:22:09;;;;;;;4.15;2.35;;;;;;;;;;6147082;23;20028;-57
2023/06/13 10:24:44;;;;;;;9.13;2.70;;;;;;;;;;6147048;23;20025;-58
2023/06/13 10:27:14;;;;;;;3.85;2.20;;;;;;;;;;6146383;23;20029;-57
2023/06/13 10:30:01;;;;;;;5.30;2.83;;;;;;;;;;6148696;23;20022;-58
2023/06/13 10:32:43;;;;;;;4.38;2.67;;;;;;;;;;6145078;23;20021;-59
2023/06/13 10:35:17;;;;;;;;;;;;;;;;;;6145329;23;20029;-60
2023/06/13 10:38:05;;;;;;;5.88;2.42;;;;;;;;;;6149777;23;19971;-51
2023/06/13 10:41:04;;;;;;;4.65;2.55;;;;;;;;;;6146735;23;20411;-54
2023/06/13 10:43:39;;;;;;;5.78;2.35;;;;;;;;;;6147778;23;20662;-54
2023/06/13 10:46:13;;;;;;;4.10;2.90;;;;;;;;;;6146470;23;20029;-54
2023/06/13 10:48:51;;;;;;;9.20;2.70;;;;;;;;;;6148429;23;20083;-65
2023/06/13 10:51:27;;;;;;;4.97;2.80;;;;;;;;;;6148608;23;20025;-50
2023/06/13 10:54:13;;;;;;;6.80;2.97;;;;;;;;;;6148104;23;20064;-51
2023/06/13 10:56:48;;;;;;;7.55;2.80;;;;;;;;;;6148485;23;20396;-47
2023/06/13 10:59:19;;;;;;;5.05;2.75;;;;;;;;;;6147906;23;20021;-49
2023/06/13 11:01:46;;;;;;;4.32;2.60;;;;;;;;;;6147573;23;20025;-49
2023/06/13 11:04:21;;;;;;;4.40;2.60;;;;;;;;;;6147615;23;20146;-53
2023/06/13 11:06:51;;;;;;;3.70;2.50;;;;;;;;;;6148406;23;20467;-47
2023/06/13 11:09:25;;;;;;;;;;;;;;;;;;6146270;23;20148;-47
2023/06/13 11:11:54;;;;;;;6.85;2.85;;;;;;;;;;6147378;23;19916;-52
2023/06/13 11:14:33;;;;;;;6.00;2.72;;;;;;;;;;6148449;23;20025;-52
2023/06/13 11:17:02;;;;;;;5.80;2.90;;;;;;;;;;6146609;23;20025;-58
2023/06/13 11:19:45;;;;;;;6.53;2.92;;;;;;;;;;6175727;23;20546;-51
2023/06/13 11:22:13;;;;;;;5.93;2.93;;;;;;;;;;6177044;23;20032;-52
2023/06/13 11:24:47;;;;;;;6.75;2.70;;;;;;;;;;6178443;23;20025;-50
2023/06/13 11:27:16;;;;;;;6.10;2.90;;;;;;;;;;6176724;23;20282;-51
2023/06/13 11:29:51;;;;;;;7.63;2.50;;;;;;;;;;6177326;23;20028;-48
2023/06/13 11:32:19;;;;;;;5.60;2.58;;;;;;;;;;6177275;23;20028;-51
2023/06/13 11:34:56;;;;;;;6.47;2.80;;;;;;;;;;6177097;23;20096;-64
2023/06/13 11:37:38;;;;;;;5.95;2.80;;;;;;;;;;6176920;23;20411;-62
2023/06/13 11:40:15;;;;;;;6.60;2.53;;;;;;;;;;6176309;23;20464;-64
2023/06/13 11:42:52;;;;;;;4.90;2.67;;;;;;;;;;6177725;23;20096;-65
2023/06/13 11:45:26;;;;;;;7.17;2.40;;;;;;;;;;6173150;23;20119;-49
2023/06/13 11:48:00;;;;;;;6.60;2.90;;;;;;;;;;6176593;23;20363;-58
2023/06/13 11:50:34;;;;;;;3.85;2.85;;;;;;;;;;6176217;23;20025;-57
2023/06/13 11:53:05;;;;;;;6.72;2.60;;;;;;;;;;6176625;23;20530;-58
2023/06/13 11:55:32;;;;;;;6.07;2.58;;;;;;;;;;6178235;23;20021;-55
2023/06/13 11:58:07;;;;;;;3.55;2.65;;;;;;;;;;6176724;23;20036;-57
2023/06/13 12:00:50;;;;;;;5.40;2.45;;;;;;;;;;6176568;23;20024;-57
2023/06/13 12:03:25;;;;;;;3.05;2.70;;;;;;;;;;6176622;23;20309;-55
2023/06/13 12:05:56;;;;;;;6.30;2.60;;;;;;;;;;6177348;23;20072;-53
2023/06/13 12:08:24;;;;;;;7.45;2.65;;;;;;;;;;6176488;23;20025;-58
2023/06/13 12:10:58;;;;;;;4.45;2.53;;;;;;;;;;6178875;23;20025;-55
2023/06/13 12:13:25;;;;;;;6.07;2.55;;;;;;;;;;6178504;23;20060;-47
2023/06/13 12:15:59;;;;;;;6.15;2.75;;;;;;;;;;6178604;23;20029;-48
2023/06/13 12:18:40;;;;;;;6.85;2.53;;;;;;;;;;6177875;23;20029;-50
2023/06/13 12:21:15;;;;;;;6.05;2.35;;;;;;;;;;6178645;23;20029;-49
2023/06/13 12:23:42;;;;;;;2.95;2.60;;;;;;;;;;6179304;23;20025;-45
2023/06/13 12:26:11;;;;;;;5.88;2.75;;;;;;;;;;6178010;23;20024;-46
2023/06/13 12:28:47;;;;;;;4.22;2.55;;;;;;;;;;6180499;23;20387;-50
2023/06/13 12:31:15;;;;;;;8.18;2.78;;;;;;;;;;6178236;23;20340;-65
2023/06/13 12:33:49;;;;;;;10.65;2.63;;;;;;;;;;6179128;23;20033;-65
2023/06/13 12:36:16;;;;;;;3.10;2.20;;;;;;;;;;6178654;23;20047;-65
2023/06/13 12:38:45;;;;;;;11.45;2.53;;;;;;;;;;6179187;23;20407;-66
2023/06/13 12:41:20;;;;;;;6.13;2.80;;;;;;;;;;6178016;23;20033;-57
2023/06/13 12:43:49;;;;;;;6.57;2.47;;;;;;;;;;6180385;23;20075;-51
2023/06/13 12:46:16;;;;;;;8.30;2.30;;;;;;;;;;6177747;23;20498;-49
2023/06/13 12:48:51;;;;;;;5.03;2.60;;;;;;;;;;6178541;23;20023;-54
2023/06/13 12:51:28;;;;;;;7.22;2.38;;;;;;;;;;6178765;23;20028;-55
2023/06/13 12:54:12;;;;;;;9.30;2.40;;;;;;;;;;6179165;23;20017;-54
2023/06/13 12:57:00;;;;;;;6.68;2.70;;;;;;;;;;6179611;23;20017;-50
2023/06/13 12:59:37;;;;;;;6.60;2.60;;;;;;;;;;6173778;23;20317;-53
2023/06/13 13:02:06;;;;;;;3.40;2.38;;;;;;;;;;6179136;23;20052;-51
2023/06/13 13:04:42;;;;;;;3.00;2.17;;;;;;;;;;6150739;23;20429;-53
2023/06/13 13:07:09;;;;;;;6.40;2.50;;;;;;;;;;6174928;23;20040;-57
2023/06/13 13:09:38;;;;;;;8.38;2.45;;;;;;;;;;6177557;23;20467;-64
2023/06/13 13:12:14;;;;;;;8.35;2.42;;;;;;;;;;6148442;23;20025;-54
2023/06/13 13:14:41;;;;;;;3.78;2.60;;;;;;;;;;6174362;23;20029;-57
2023/06/13 13:17:16;;;;;;;4.25;2.42;;;;;;;;;;6178118;23;20717;-56
2023/06/13 13:19:53;;;;;;;3.78;2.63;;;;;;;;;;6174205;23;20025;-56
2023/06/13 13:22:27;;;;;;;6.15;2.58;;;;;;;;;;6177079;23;20459;-55
2023/06/13 13:24:54;;;;;;;5.32;2.67;;;;;;;;;;6178978;23;20033;-56
2023/06/13 13:27:21;;;;;;;5.90;2.70;;;;;;;;;;6178152;23;20021;-53
2023/06/13 13:29:55;;;;;;;4.38;2.58;;;;;;;;;;6177821;23;20029;-55
2023/06/13 13:32:26;;;;;;;4.85;2.30;;;;;;;;;;6177497;23;20099;-51
2023/06/13 13:35:02;;;;;;;7.35;2.58;;;;;;;;;;6177171;23;20363;-53
2023/06/13 13:37:30;;;;;;;2.65;2.40;;;;;;;;;;6177084;23;20059;-48
2023/06/13 13:39:57;;;;;;;6.18;2.47;;;;;;;;;;6178099;23;20099;-47
2023/06/13 13:42:36;;;;;;;8.15;2.90;;;;;;;;;;6177578;23;20075;-59
2023/06/13 13:45:04;;;;;;;4.68;2.50;;;;;;;;;;6177843;23;20355;-59
2023/06/13 13:47:38;;;;;;;6.00;2.40;;;;;;;;;;6178239;23;20028;-60
2023/06/13 13:50:08;;;;;;;2.83;2.30;;;;;;;;;;6178794;23;20031;-59
2023/06/13 13:52:35;;;;;;;5.43;2.70;;;;;;;;;;6176678;23;20080;-59
2023/06/13 13:55:10;;;;;;;4.80;2.60;;;;;;;;;;6178620;23;20048;-60
2023/06/13 13:57:37;;;;;;;4.45;2.58;;;;;;;;;;6178287;23;20028;-50
2023/06/13 14:00:13;;;;;;;5.13;2.67;;;;;;;;;;6177146;23;20025;-53
2023/06/13 14:02:40;;;;;;;4.60;2.45;;;;;;;;;;6179424;23;20092;-50
2023/06/13 14:05:07;;;;;;;4.75;2.60;;;;;;;;;;6177766;23;20088;-51
2023/06/13 14:07:42;;;;;;;4.13;2.55;;;;;;;;;;6178250;23;20028;-45
2023/06/13 14:10:09;;;;;;;2.83;2.35;;;;;;;;;;6178269;23;20029;-52
2023/06/13 14:12:37;;;;;;;5.50;2.40;;;;;;;;;;6176991;23;20028;-51
2023/06/13 14:15:11;;;;;;;6.55;2.58;;;;;;;;;;6175433;23;20056;-55
2023/06/13 14:17:38;;;;;;;2.63;2.40;;;;;;;;;;6176201;23;20092;-57
2023/06/13 14:20:19;;;;;;;3.08;2.60;;;;;;;;;;6175333;23;20123;-55
2023/06/13 14:22:47;;;;;;;3.63;2.40;;;;;;;;;;6176883;23;20028;-57
2023/06/13 14:25:21;;;;;;;6.07;2.92;;;;;;;;;;6177033;23;20075;-52
2023/06/13 14:27:48;;;;;;;;;;;;;;;;;;6178411;23;20021;-56
2023/06/13 14:30:15;;;;;;;3.58;2.20;;;;;;;;;;6176354;23;19920;-57
2023/06/13 14:32:50;;;;;;;8.48;2.70;;;;;;;;;;6177969;23;20042;-57
2023/06/13 14:35:17;;;;;;;2.85;2.42;;;;;;;;;;6175773;23;20099;-54
2023/06/13 14:37:51;;;;;;;2.60;2.40;;;;;;;;;;6177341;23;20464;-47
2023/06/13 14:40:18;;;;;;;;;;;;;;;;;;6177404;23;20275;-47
2023/06/13 14:42:46;;;;;;;6.25;2.50;;;;;;;;;;6177229;23;19927;-49
2023/06/13 14:45:20;;;;;;;5.22;2.60;;;;;;;;;;6177445;23;20081;-50
2023/06/13 14:47:47;;;;;;;;;;;;;;;;;;6177684;23;20735;-46
2023/06/13 14:50:22;;;;;;;6.60;2.58;;;;;;;;;;6176400;23;19963;-51
2023/06/13 14:52:49;;;;;;;2.72;2.20;;;;;;;;;;6177688;23;20463;-47
2023/06/13 14:55:25;;;;;;;8.15;2.88;;;;;;;;;;6152721;23;20080;-60
2023/06/13 14:57:54;;;;;;;6.72;2.45;;;;;;;;;;6176263;23;20074;-55
2023/06/13 15:00:22;;;;;;;3.95;2.70;;;;;;;;;;6176857;23;20344;-58
2023/06/13 15:02:56;;;;;;;4.80;2.60;;;;;;;;;;6177299;23;20033;-54
2023/06/13 15:05:23;;;;;;;5.00;2.55;;;;;;;;;;6176535;23;20021;-51
2023/06/13 15:07:57;;;;;;;3.85;2.40;;;;;;;;;;6176264;23;20029;-55
2023/06/13 15:10:24;;;;;;;;;;;;;;;;;;6175267;23;20847;-52
2023/06/13 15:12:51;;;;;;;4.50;2.10;;;;;;;;;;6176256;23;20320;-60
2023/06/13 15:15:25;;;;;;;3.88;2.42;;;;;;;;;;6177863;23;20025;-64